createdAt,value
2018-08-09T00:01:46.792Z,7.85
2018-08-09T00:04:15.968Z,6.72
2018-08-09T00:06:45.276Z,7.70
2018-08-09T00:09:14.457Z,7.03
2018-08-09T00:11:43.652Z,6.30
2018-08-09T00:14:13.185Z,6.55
2018-08-09T00:16:42.634Z,8.00
2018-08-09T00:19:11.825Z,7.72
2018-08-09T00:21:41.046Z,8.10
2018-08-09T00:24:10.234Z,7.12
2018-08-09T00:26:39.469Z,7.70
2018-08-09T00:29:08.657Z,7.83
2018-08-09T00:31:37.872Z,7.12
2018-08-09T00:34:07.234Z,6.78
2018-08-09T00:36:36.432Z,7.37
2018-08-09T00:39:08.857Z,7.05
2018-08-09T00:41:38.079Z,9.38
2018-08-09T00:44:07.264Z,5.83
2018-08-09T00:46:36.711Z,7.50
2018-08-09T00:49:06.803Z,8.78
2018-08-09T00:51:36.371Z,8.73
2018-08-09T00:54:05.830Z,8.15
2018-08-09T00:56:35.042Z,8.93
2018-08-09T00:59:04.517Z,8.98
2018-08-09T01:01:33.737Z,7.00
2018-08-09T01:04:02.939Z,7.37
2018-08-09T01:06:32.185Z,7.90
2018-08-09T01:09:07.201Z,8.50
2018-08-09T01:11:37.645Z,8.05
2018-08-09T01:14:07.025Z,6.37
2018-08-09T01:16:36.277Z,7.45
2018-08-09T01:19:05.504Z,7.67
2018-08-09T01:21:34.716Z,6.33
2018-08-09T01:24:03.937Z,6.60
2018-08-09T01:26:33.172Z,9.55
2018-08-09T01:29:02.429Z,7.53
2018-08-09T01:31:34.225Z,8.60
2018-08-09T01:34:05.134Z,4.95
2018-08-09T01:36:34.943Z,5.87
2018-08-09T01:39:06.674Z,6.78
2018-08-09T01:41:35.860Z,6.92
2018-08-09T01:44:06.292Z,7.20
2018-08-09T01:46:35.486Z,8.30
2018-08-09T01:49:04.741Z,5.08
2018-08-09T01:51:34.020Z,8.33
2018-08-09T01:54:03.256Z,7.17
2018-08-09T01:56:32.446Z,7.05
2018-08-09T01:59:01.698Z,9.78
2018-08-09T02:01:30.884Z,8.38
2018-08-09T02:04:00.097Z,8.35
2018-08-09T02:06:29.316Z,10.03
2018-08-09T02:09:02.676Z,9.25
2018-08-09T02:11:31.869Z,7.37
2018-08-09T02:14:01.065Z,6.35
2018-08-09T02:16:30.278Z,6.58
2018-08-09T02:18:59.537Z,7.53
2018-08-09T02:21:28.751Z,10.53
2018-08-09T02:23:57.992Z,6.85
2018-08-09T02:26:27.217Z,6.78
2018-08-09T02:28:56.420Z,7.97
2018-08-09T02:31:25.642Z,7.15
2018-08-09T02:33:54.865Z,5.78
2018-08-09T02:36:24.152Z,7.78
2018-08-09T02:38:53.716Z,8.18
2018-08-09T02:41:23.138Z,5.72
2018-08-09T02:43:52.344Z,6.55
2018-08-09T02:46:21.590Z,9.48
2018-08-09T02:48:51.740Z,6.90
2018-08-09T02:51:20.962Z,8.95
2018-08-09T02:53:50.178Z,8.90
2018-08-09T02:56:19.379Z,8.08
2018-08-09T02:58:48.560Z,7.08
2018-08-09T03:01:17.750Z,8.15
2018-08-09T03:03:46.950Z,6.78
2018-08-09T03:06:16.148Z,8.95
2018-08-09T03:08:45.332Z,8.00
2018-08-09T03:11:14.537Z,6.15
2018-08-09T03:13:43.801Z,7.47
2018-08-09T03:16:13.006Z,7.20
2018-08-09T03:18:42.202Z,7.87
2018-08-09T03:21:11.415Z,7.97
2018-08-09T03:23:40.608Z,9.10
2018-08-09T03:26:09.815Z,9.60
2018-08-09T03:28:39.008Z,8.70
2018-08-09T03:31:08.206Z,6.40
2018-08-09T03:33:37.412Z,7.03
2018-08-09T03:36:06.730Z,12.58
2018-08-09T03:38:35.936Z,9.73
2018-08-09T03:41:05.145Z,6.83
2018-08-09T03:43:34.333Z,8.85
2018-08-09T03:46:03.531Z,7.05
2018-08-09T03:48:33.149Z,9.08
2018-08-09T03:51:02.356Z,7.92
2018-08-09T03:53:31.592Z,8.55
2018-08-09T03:56:00.784Z,5.35
2018-08-09T03:58:29.993Z,6.85
2018-08-09T04:00:59.225Z,5.65
2018-08-09T04:03:28.430Z,8.55
2018-08-09T04:05:57.622Z,7.75
2018-08-09T04:08:26.833Z,9.55
2018-08-09T04:10:56.033Z,6.37
2018-08-09T04:13:25.240Z,9.75
2018-08-09T04:15:54.470Z,8.10
2018-08-09T04:18:23.699Z,8.80
2018-08-09T04:20:52.903Z,7.95
2018-08-09T04:23:22.121Z,6.47
2018-08-09T04:25:51.310Z,7.60
2018-08-09T04:28:20.525Z,6.03
2018-08-09T04:30:49.779Z,7.37
2018-08-09T04:33:19.001Z,6.40
2018-08-09T04:35:48.201Z,8.85
2018-08-09T04:38:17.412Z,8.63
2018-08-09T04:40:46.692Z,8.93
2018-08-09T04:43:15.917Z,8.23
2018-08-09T04:45:45.141Z,10.53
2018-08-09T04:48:14.350Z,7.72
2018-08-09T04:50:43.651Z,10.43
2018-08-09T04:53:12.853Z,10.35
2018-08-09T04:55:42.116Z,12.55
2018-08-09T04:58:11.370Z,10.38
2018-08-09T05:00:40.597Z,9.20
2018-08-09T05:03:09.835Z,11.28
2018-08-09T05:05:39.069Z,9.68
2018-08-09T05:08:08.574Z,8.15
2018-08-09T05:10:37.780Z,8.15
2018-08-09T05:13:07.016Z,11.12
2018-08-09T05:15:36.209Z,10.05
2018-08-09T05:18:05.557Z,9.25
2018-08-09T05:20:34.739Z,9.53
2018-08-09T05:23:04.013Z,10.10
2018-08-09T05:25:33.234Z,10.03
2018-08-09T05:28:02.491Z,8.93
2018-08-09T05:30:31.691Z,10.05
2018-08-09T05:33:00.913Z,8.50
2018-08-09T05:35:30.160Z,10.72
2018-08-09T05:37:59.453Z,10.38
2018-08-09T05:40:28.969Z,9.05
2018-08-09T05:42:58.232Z,10.08
2018-08-09T05:45:27.440Z,10.88
2018-08-09T05:47:56.684Z,10.70
2018-08-09T05:50:25.947Z,11.38
2018-08-09T05:52:55.296Z,8.75
2018-08-09T05:55:24.542Z,10.50
2018-08-09T05:57:53.789Z,13.58
2018-08-09T06:00:23.016Z,14.93
2018-08-09T06:02:52.236Z,15.85
2018-08-09T06:05:21.469Z,13.95
2018-08-09T06:07:50.683Z,18.85
2018-08-09T06:10:19.942Z,12.40
2018-08-09T06:12:50.168Z,11.35
2018-08-09T06:15:19.452Z,12.03
2018-08-09T06:17:48.798Z,13.25
2018-08-09T06:20:18.053Z,14.40
2018-08-09T06:22:47.256Z,16.20
2018-08-09T06:25:16.522Z,12.13
2018-08-09T06:27:45.726Z,10.55
2018-08-09T06:30:14.993Z,12.37
2018-08-09T06:32:44.276Z,10.35
2018-08-09T06:35:13.513Z,15.08
2018-08-09T06:37:42.734Z,15.72
2018-08-09T06:40:14.068Z,15.58
2018-08-09T06:42:44.369Z,15.35
2018-08-09T06:45:13.669Z,13.60
2018-08-09T06:47:42.891Z,16.50
2018-08-09T06:50:12.542Z,14.58
2018-08-09T06:52:41.773Z,11.40
2018-08-09T06:55:11.036Z,11.73
2018-08-09T06:57:40.257Z,16.12
2018-08-09T07:00:12.342Z,13.60
2018-08-09T07:02:41.723Z,13.18
2018-08-09T07:05:10.949Z,11.88
2018-08-09T07:07:40.918Z,11.90
2018-08-09T07:10:10.461Z,13.55
2018-08-09T07:14:04.149Z,11.40
2018-08-09T07:16:33.420Z,13.28
2018-08-09T07:19:02.824Z,11.78
2018-08-09T07:21:32.083Z,14.18
2018-08-09T07:24:01.357Z,11.43
2018-08-09T07:26:30.635Z,10.38
2018-08-09T07:28:59.875Z,11.80
2018-08-09T07:31:29.087Z,9.98
2018-08-09T07:33:58.371Z,11.95
2018-08-09T07:36:27.707Z,11.80
2018-08-09T07:38:56.903Z,10.10
2018-08-09T07:41:26.434Z,10.05
2018-08-09T07:43:56.083Z,13.90
2018-08-09T07:46:25.320Z,11.25
2018-08-09T07:48:54.565Z,11.12
2018-08-09T07:51:23.812Z,8.90
2018-08-09T07:53:53.081Z,8.93
2018-08-09T07:56:22.476Z,8.93
2018-08-09T07:58:51.690Z,9.35
2018-08-09T08:01:20.932Z,11.38
2018-08-09T08:03:50.198Z,9.83
2018-08-09T08:06:19.449Z,8.73
2018-08-09T08:08:48.649Z,11.78
2018-08-09T08:11:17.886Z,8.20
2018-08-09T08:13:47.086Z,8.38
2018-08-09T08:16:16.306Z,10.38
2018-08-09T08:18:45.521Z,11.60
2018-08-09T08:21:14.833Z,7.20
2018-08-09T08:23:44.048Z,9.23
2018-08-09T08:26:13.225Z,9.68
2018-08-09T08:28:42.456Z,8.03
2018-08-09T08:31:11.662Z,10.63
2018-08-09T08:33:40.912Z,13.62
2018-08-09T08:36:10.183Z,7.87
2018-08-09T08:38:39.412Z,10.65
2018-08-09T08:41:08.715Z,7.65
2018-08-09T08:43:37.959Z,9.20
2018-08-09T08:46:07.209Z,11.90
2018-08-09T08:48:36.429Z,8.00
2018-08-09T08:51:05.639Z,9.70
2018-08-09T08:53:34.966Z,10.70
2018-08-09T08:56:04.181Z,10.18
2018-08-09T08:58:33.441Z,10.50
2018-08-09T09:01:02.741Z,7.53
2018-08-09T09:03:32.346Z,8.80
2018-08-09T09:06:01.525Z,10.43
2018-08-09T09:08:30.755Z,7.60
2018-08-09T09:10:59.979Z,8.88
2018-08-09T09:13:29.221Z,8.05
2018-08-09T09:15:58.462Z,10.10
2018-08-09T09:18:27.696Z,9.73
2018-08-09T09:20:56.949Z,7.35
2018-08-09T09:23:33.024Z,10.20
2018-08-09T09:26:02.240Z,6.12
2018-08-09T09:28:31.473Z,10.70
2018-08-09T09:31:00.677Z,8.45
2018-08-09T09:33:29.972Z,11.20
2018-08-09T09:35:59.173Z,6.72
2018-08-09T09:38:28.421Z,8.58
2018-08-09T09:40:57.645Z,7.70
2018-08-09T09:43:26.900Z,10.60
2018-08-09T09:45:56.174Z,5.70
2018-08-09T09:48:25.448Z,11.57
2018-08-09T09:50:54.689Z,5.20
2018-08-09T09:53:23.914Z,5.80
2018-08-09T09:55:53.150Z,7.00
2018-08-09T09:58:22.360Z,6.47
2018-08-09T10:00:56.765Z,6.15
2018-08-09T10:03:26.016Z,5.05
2018-08-09T10:05:55.242Z,5.15
2018-08-09T10:08:24.517Z,6.62
2018-08-09T10:10:53.743Z,8.40
2018-08-09T10:13:22.998Z,4.28
2018-08-09T10:15:52.257Z,6.35
2018-08-09T10:18:21.457Z,7.20
2018-08-09T10:20:50.658Z,6.35
2018-08-09T10:23:19.938Z,5.65
2018-08-09T10:25:49.155Z,5.62
2018-08-09T10:28:18.354Z,6.60
2018-08-09T10:30:47.596Z,6.37
2018-08-09T10:33:16.780Z,4.28
2018-08-09T10:35:46.091Z,4.00
2018-08-09T10:38:15.398Z,4.03
2018-08-09T10:40:44.616Z,4.47
2018-08-09T10:43:13.806Z,7.60
2018-08-09T10:45:43.032Z,6.03
2018-08-09T10:48:12.231Z,4.58
2018-08-09T10:50:41.564Z,4.95
2018-08-09T10:53:10.775Z,5.17
2018-08-09T10:55:40.119Z,5.95
2018-08-09T10:58:09.288Z,5.90
2018-08-09T11:00:38.594Z,4.40
2018-08-09T11:03:07.834Z,8.43
2018-08-09T11:05:37.080Z,5.97
2018-08-09T11:08:06.383Z,4.72
2018-08-09T11:10:35.619Z,7.83
2018-08-09T11:13:04.915Z,6.28
2018-08-09T11:15:34.800Z,3.52
2018-08-09T11:18:04.075Z,5.00
2018-08-09T11:20:33.324Z,5.45
2018-08-09T11:23:02.525Z,4.45
2018-08-09T11:25:31.761Z,4.30
2018-08-09T11:28:01.017Z,5.22
2018-08-09T11:30:30.239Z,5.55
2018-08-09T11:32:59.467Z,7.40
2018-08-09T11:35:28.729Z,6.90
2018-08-09T11:37:57.938Z,6.30
2018-08-09T11:40:27.170Z,4.80
2018-08-09T11:42:56.408Z,6.25
2018-08-09T11:45:25.797Z,5.33
2018-08-09T11:48:01.350Z,5.60
2018-08-09T11:50:30.628Z,5.55
2018-08-09T11:52:59.844Z,3.95
2018-08-09T11:55:29.171Z,3.95
2018-08-09T11:57:58.376Z,5.83
2018-08-09T12:00:27.591Z,5.17
2018-08-09T12:02:56.817Z,3.05
2018-08-09T12:05:26.092Z,3.35
2018-08-09T12:07:55.318Z,4.17
2018-08-09T12:10:24.547Z,5.03
2018-08-09T12:12:53.732Z,3.47
2018-08-09T12:15:22.995Z,3.95
2018-08-09T12:17:52.261Z,4.75
2018-08-09T12:20:21.553Z,4.60
2018-08-09T12:22:50.892Z,3.85
2018-08-09T12:25:20.125Z,4.50
2018-08-09T12:27:49.381Z,5.67
2018-08-09T12:30:18.670Z,3.42
2018-08-09T12:32:47.884Z,3.85
2018-08-09T12:35:17.084Z,2.98
2018-08-09T12:37:46.307Z,3.72
2018-08-09T12:40:15.808Z,4.55
2018-08-09T12:42:45.038Z,3.95
2018-08-09T12:45:14.347Z,3.72
2018-08-09T12:47:44.023Z,3.77
2018-08-09T12:50:14.406Z,3.65
2018-08-09T12:52:44.706Z,5.12
2018-08-09T12:55:14.876Z,4.40
2018-08-09T12:57:44.177Z,4.40
2018-08-09T13:00:14.449Z,3.95
2018-08-09T13:02:43.706Z,3.75
2018-08-09T13:05:13.215Z,4.20
2018-08-09T13:07:42.853Z,4.15
2018-08-09T13:10:13.441Z,5.28
2018-08-09T13:12:42.749Z,5.45
2018-08-09T13:15:14.332Z,4.40
2018-08-09T13:17:45.135Z,4.35
2018-08-09T13:20:18.021Z,6.25
2018-08-09T13:22:48.038Z,4.97
2018-08-09T13:25:17.232Z,4.50
2018-08-09T13:27:46.466Z,4.92
2018-08-09T13:30:15.846Z,4.70
2018-08-09T13:32:45.497Z,4.33
2018-08-09T13:35:14.698Z,4.22
2018-08-09T13:37:44.053Z,4.22
2018-08-09T13:40:13.334Z,5.45
2018-08-09T13:42:42.552Z,4.92
2018-08-09T13:45:15.028Z,4.45
2018-08-09T13:47:44.271Z,3.90
2018-08-09T13:50:13.891Z,4.08
2018-08-09T13:52:43.381Z,5.12
2018-08-09T13:55:14.814Z,5.47
2018-08-09T13:57:44.465Z,4.87
2018-08-09T14:00:14.428Z,4.40
2018-08-09T14:02:44.929Z,7.62
2018-08-09T14:05:14.135Z,5.12
2018-08-09T14:07:43.948Z,5.05
2018-08-09T14:10:13.404Z,5.10
2018-08-09T14:12:43.225Z,3.90
2018-08-09T14:15:14.521Z,4.70
2018-08-09T14:17:43.764Z,4.47
2018-08-09T14:20:16.105Z,7.53
2018-08-09T14:22:45.341Z,9.23
2018-08-09T14:25:14.670Z,5.03
2018-08-09T14:27:44.001Z,5.15
2018-08-09T14:30:15.630Z,5.53
2018-08-09T14:32:45.505Z,5.28
2018-08-09T14:35:16.278Z,5.03
2018-08-09T14:37:46.502Z,5.40
2018-08-09T14:40:16.652Z,4.40
2018-08-09T14:42:45.913Z,4.95
2018-08-09T14:45:16.633Z,4.80
2018-08-09T14:47:45.937Z,4.47
2018-08-09T14:50:15.178Z,4.08
2018-08-09T14:52:44.465Z,5.03
2018-08-09T14:55:13.990Z,4.37
2018-08-09T14:57:43.493Z,4.37
2018-08-09T15:00:18.073Z,5.10
2018-08-09T15:02:47.563Z,5.45
2018-08-09T15:05:17.472Z,5.00
2018-08-09T15:07:46.719Z,6.08
2018-08-09T15:10:17.464Z,5.05
2018-08-09T15:12:46.733Z,4.97
2018-08-09T15:15:16.033Z,5.55
2018-08-09T15:17:45.256Z,4.92
2018-08-09T15:20:14.845Z,4.53
2018-08-09T15:22:44.139Z,4.62
2018-08-09T15:25:13.447Z,5.15
2018-08-09T15:27:42.705Z,4.95
2018-08-09T15:30:21.358Z,4.95
2018-08-09T15:32:50.605Z,5.03
2018-08-09T15:35:19.881Z,5.03
2018-08-09T15:37:49.125Z,6.37
2018-08-09T15:40:18.381Z,4.95
2018-08-09T15:42:47.612Z,8.18
2018-08-09T15:45:17.144Z,4.40
2018-08-09T15:47:46.488Z,4.53
2018-08-09T15:50:19.338Z,4.87
2018-08-09T15:52:48.626Z,5.00
2018-08-09T15:55:18.681Z,4.55
2018-08-09T15:57:48.118Z,4.65
2018-08-09T16:00:20.624Z,5.17
2018-08-09T16:02:49.871Z,3.95
2018-08-09T16:05:19.108Z,4.55
2018-08-09T16:07:48.356Z,4.90
2018-08-09T16:10:18.770Z,5.12
2018-08-09T16:12:48.512Z,5.10
2018-08-09T16:15:19.022Z,5.00
2018-08-09T16:17:49.072Z,4.42
2018-08-09T16:20:18.353Z,4.92
2018-08-09T16:22:47.861Z,5.45
2018-08-09T16:25:18.835Z,5.03
2018-08-09T16:27:49.389Z,5.25
2018-08-09T16:30:21.337Z,4.78
2018-08-09T16:32:50.650Z,5.85
2018-08-09T16:35:19.994Z,4.70
2018-08-09T16:37:49.423Z,4.22
2018-08-09T16:40:21.773Z,4.60
2018-08-09T16:42:51.067Z,7.00
2018-08-09T16:45:21.357Z,6.05
2018-08-09T16:47:51.776Z,4.72
2018-08-09T16:50:22.742Z,3.72
2018-08-09T16:52:52.437Z,4.28
2018-08-09T16:55:23.344Z,4.35
2018-08-09T16:57:52.636Z,3.60
2018-08-09T17:00:23.932Z,3.47
2018-08-09T17:02:54.678Z,4.30
2018-08-09T17:05:27.263Z,3.95
2018-08-09T17:07:56.853Z,3.50
2018-08-09T17:10:26.619Z,4.45
2018-08-09T17:12:55.960Z,4.17
2018-08-09T17:15:28.402Z,4.45
2018-08-09T17:17:58.695Z,3.45
2018-08-09T17:20:30.481Z,3.80
2018-08-09T17:23:01.217Z,5.70
2018-08-09T17:25:30.529Z,3.77
2018-08-09T17:28:00.431Z,3.80
2018-08-09T17:30:29.977Z,3.92
2018-08-09T17:32:59.572Z,4.95
2018-08-09T17:35:28.860Z,3.92
2018-08-09T17:37:58.181Z,5.97
2018-08-09T17:40:30.243Z,18.73
2018-08-09T17:43:00.211Z,11.25
2018-08-09T17:45:33.282Z,12.03
2018-08-09T17:48:03.118Z,12.25
2018-08-09T17:50:32.448Z,11.95
2018-08-09T17:53:03.289Z,9.85
2018-08-09T17:55:33.273Z,8.08
2018-08-09T17:58:02.590Z,9.90
2018-08-09T18:00:33.227Z,7.80
2018-08-09T18:03:02.515Z,6.10
2018-08-09T18:05:31.724Z,5.22
2018-08-09T18:08:01.068Z,9.08
2018-08-09T18:10:32.486Z,5.75
2018-08-09T18:13:01.809Z,8.18
2018-08-09T18:15:31.792Z,8.20
2018-08-09T18:18:01.933Z,7.80
2018-08-09T18:20:32.904Z,5.60
2018-08-09T18:23:02.190Z,6.30
2018-08-09T18:25:31.438Z,5.08
2018-08-09T18:28:00.701Z,7.08
2018-08-09T18:30:29.921Z,6.22
2018-08-09T18:32:59.304Z,3.22
2018-08-09T18:35:28.497Z,7.35
2018-08-09T18:37:57.766Z,7.95
2018-08-09T18:40:27.899Z,4.87
2018-08-09T18:42:57.222Z,5.55
2018-08-09T18:45:26.485Z,5.12
2018-08-09T18:47:55.693Z,5.33
2018-08-09T18:50:26.680Z,5.45
2018-08-09T18:52:55.965Z,5.83
2018-08-09T18:55:25.206Z,5.83
2018-08-09T18:57:54.490Z,6.53
2018-08-09T19:00:27.638Z,4.60
2018-08-09T19:02:57.144Z,7.17
2018-08-09T19:05:26.897Z,4.33
2018-08-09T19:07:56.361Z,3.90
2018-08-09T19:10:28.336Z,4.08
2018-08-09T19:12:57.541Z,5.08
2018-08-09T19:15:26.822Z,3.72
2018-08-09T19:17:56.066Z,3.67
2018-08-09T19:20:28.268Z,5.00
2018-08-09T19:22:58.094Z,5.28
2018-08-09T19:25:27.353Z,3.30
2018-08-09T19:27:56.621Z,3.67
2018-08-09T19:30:28.306Z,3.58
2018-08-09T19:32:57.608Z,4.20
2018-08-09T19:35:27.482Z,3.65
2018-08-09T19:37:56.749Z,3.10
2018-08-09T19:40:28.527Z,2.65
2018-08-09T19:42:57.978Z,4.33
2018-08-09T19:45:27.281Z,2.92
2018-08-09T19:47:56.622Z,3.37
2018-08-09T19:50:26.157Z,5.65
2018-08-09T19:52:55.417Z,3.85
2018-08-09T19:55:26.010Z,4.28
2018-08-09T19:57:55.243Z,3.00
2018-08-09T20:00:29.665Z,2.37
2018-08-09T20:02:58.925Z,4.45
2018-08-09T20:05:28.233Z,7.95
2018-08-09T20:07:58.184Z,2.52
2018-08-09T20:10:27.433Z,6.10
2018-08-09T20:12:56.672Z,3.42
2018-08-09T20:15:25.888Z,3.80
2018-08-09T20:17:55.149Z,2.52
2018-08-09T20:20:25.599Z,3.30
2018-08-09T20:22:54.955Z,3.83
2018-08-09T20:25:24.136Z,4.92
2018-08-09T20:27:53.353Z,3.62
2018-08-09T20:30:22.601Z,4.85
2018-08-09T20:32:51.823Z,3.87
2018-08-09T20:35:23.305Z,4.42
2018-08-09T20:37:52.907Z,4.08
2018-08-09T20:40:23.166Z,2.22
2018-08-09T20:42:53.474Z,4.12
2018-08-09T20:45:23.832Z,2.65
2018-08-09T20:47:53.254Z,2.77
2018-08-09T20:50:24.326Z,3.50
2018-08-09T20:52:53.539Z,2.62
2018-08-09T20:55:22.935Z,3.40
2018-08-09T20:57:53.139Z,3.27
2018-08-09T21:00:27.226Z,3.37
2018-08-09T21:02:57.816Z,2.27
2018-08-09T21:05:28.489Z,2.50
2018-08-09T21:07:58.066Z,3.80
2018-08-09T21:10:27.635Z,3.67
2018-08-09T21:12:56.924Z,3.92
2018-08-09T21:15:26.215Z,3.25
2018-08-09T21:17:55.413Z,4.05
2018-08-09T21:20:24.690Z,3.58
2018-08-09T21:22:53.919Z,2.33
2018-08-09T21:25:23.152Z,3.83
2018-08-09T21:27:52.361Z,2.00
2018-08-09T21:30:22.862Z,2.80
2018-08-09T21:32:52.413Z,2.00
2018-08-09T21:35:21.633Z,2.60
2018-08-09T21:37:50.841Z,2.67
2018-08-09T21:40:20.102Z,2.45
2018-08-09T21:42:49.297Z,1.80
2018-08-09T21:45:19.865Z,1.50
2018-08-09T21:47:49.036Z,4.22
2018-08-09T21:50:20.703Z,3.77
2018-08-09T21:52:49.948Z,3.25
2018-08-09T21:55:19.225Z,2.02
2018-08-09T21:57:48.729Z,1.85
2018-08-09T22:00:51.980Z,2.40
2018-08-09T22:03:24.507Z,2.25
2018-08-09T22:05:58.998Z,2.08
2018-08-09T22:08:33.437Z,2.25
2018-08-09T22:11:08.336Z,2.55
2018-08-09T22:13:42.825Z,2.00
2018-08-09T22:16:17.331Z,2.62
2018-08-09T22:18:51.892Z,2.67
2018-08-09T22:21:26.256Z,1.60
2018-08-09T22:23:55.482Z,2.72
2018-08-09T22:26:24.760Z,1.52
2018-08-09T22:28:53.972Z,2.65
2018-08-09T22:31:23.244Z,2.02
2018-08-09T22:33:52.462Z,3.52
2018-08-09T22:36:21.756Z,2.27
2018-08-09T22:38:51.935Z,2.77
2018-08-09T22:41:22.401Z,1.40
2018-08-09T22:43:51.600Z,3.25
2018-08-09T22:46:20.838Z,3.37
2018-08-09T22:48:50.045Z,2.65
2018-08-09T22:51:19.282Z,1.65
2018-08-09T22:53:48.492Z,3.15
2018-08-09T22:56:17.717Z,2.52
2018-08-09T22:58:46.936Z,2.08
2018-08-09T23:01:16.168Z,1.92
2018-08-09T23:03:45.419Z,2.70
2018-08-09T23:06:16.053Z,2.08
2018-08-09T23:08:45.261Z,2.08
2018-08-09T23:11:14.491Z,2.22
2018-08-09T23:13:43.696Z,1.90
2018-08-09T23:16:12.989Z,1.80
2018-08-09T23:18:42.210Z,3.65
2018-08-09T23:21:11.409Z,3.00
2018-08-09T23:23:40.604Z,2.20
2018-08-09T23:26:09.846Z,2.47
2018-08-09T23:28:39.050Z,1.70
2018-08-09T23:31:08.277Z,3.92
2018-08-09T23:33:37.475Z,2.35
2018-08-09T23:36:06.872Z,2.30
2018-08-09T23:38:36.076Z,3.10
2018-08-09T23:41:05.313Z,1.80
2018-08-09T23:43:34.531Z,2.30
2018-08-09T23:46:03.757Z,2.37
2018-08-09T23:48:32.953Z,1.92
2018-08-09T23:51:02.169Z,1.98
2018-08-09T23:53:31.380Z,2.37
2018-08-09T23:56:00.608Z,2.33
2018-08-09T23:58:29.814Z,2.30
